createdAt,value
2022-09-12T00:04:12.415Z,2.94
2022-09-12T00:09:19.735Z,2.93
2022-09-12T00:14:27.754Z,2.92
2022-09-12T00:19:34.552Z,2.93
2022-09-12T00:24:42.519Z,2.93
2022-09-12T00:29:50.405Z,2.94
2022-09-12T00:34:57.124Z,2.93
2022-09-12T00:40:04.172Z,2.93
2022-09-12T00:45:10.643Z,2.94
2022-09-12T00:50:17.817Z,2.93
2022-09-12T00:55:25.931Z,2.93
2022-09-12T01:00:33.600Z,2.92
2022-09-12T01:05:41.997Z,2.92
2022-09-12T01:10:49.682Z,2.93
2022-09-12T01:15:57.527Z,2.94
2022-09-12T01:21:05.375Z,2.93
2022-09-12T01:26:13.398Z,2.94
2022-09-12T01:31:20.534Z,2.94
2022-09-12T01:36:27.948Z,2.93
2022-09-12T01:41:37.003Z,2.93
2022-09-12T01:46:44.934Z,2.93
2022-09-12T01:51:52.919Z,2.93
2022-09-12T01:56:59.734Z,2.94
2022-09-12T02:02:08.085Z,2.93
2022-09-12T02:07:15.860Z,2.94
2022-09-12T02:12:21.983Z,2.94
2022-09-12T02:17:30.497Z,2.93
2022-09-12T02:22:38.372Z,2.92
2022-09-12T02:27:45.586Z,2.94
2022-09-12T02:32:53.837Z,2.94
2022-09-12T02:38:01.199Z,2.93
2022-09-12T02:43:08.809Z,2.94
2022-09-12T02:48:15.071Z,2.93
2022-09-12T02:53:22.342Z,2.93
2022-09-12T02:58:30.286Z,2.93
2022-09-12T03:03:38.513Z,2.92
2022-09-12T03:08:46.872Z,2.93
2022-09-12T03:13:54.173Z,2.92
2022-09-12T03:19:00.699Z,2.92
2022-09-12T03:24:09.692Z,2.93
2022-09-12T03:29:17.364Z,2.94
2022-09-12T03:34:24.317Z,2.93
2022-09-12T03:39:32.141Z,2.93
2022-09-12T03:44:39.291Z,2.93
2022-09-12T03:49:47.596Z,2.92
2022-09-12T03:54:54.977Z,2.92
2022-09-12T04:00:02.709Z,2.92
2022-09-12T04:05:11.283Z,2.93
2022-09-12T04:10:20.132Z,2.92
2022-09-12T04:15:27.856Z,2.93
2022-09-12T04:20:41.162Z,2.92
2022-09-12T04:25:47.898Z,2.92
2022-09-12T04:30:55.586Z,2.93
2022-09-12T04:36:02.780Z,2.92
2022-09-12T04:41:10.014Z,2.93
2022-09-12T04:46:17.856Z,2.93
2022-09-12T04:51:25.020Z,2.92
2022-09-12T04:56:32.214Z,2.92
2022-09-12T05:01:40.573Z,2.92
2022-09-12T05:06:47.925Z,2.92
2022-09-12T05:11:56.406Z,2.93
2022-09-12T05:17:04.287Z,2.93
2022-09-12T05:22:18.457Z,2.92
2022-09-12T05:27:25.780Z,2.94
2022-09-12T05:32:34.171Z,2.93
2022-09-12T05:37:41.340Z,2.93
2022-09-12T05:42:48.893Z,2.93
2022-09-12T05:47:56.398Z,2.93
2022-09-12T05:53:03.577Z,2.93
2022-09-12T05:58:12.038Z,2.94
2022-09-12T06:03:20.544Z,2.94
2022-09-12T06:08:27.108Z,2.94
2022-09-12T06:13:34.296Z,2.94
2022-09-12T06:18:41.164Z,2.94
2022-09-12T06:23:49.587Z,2.94
2022-09-12T06:28:56.877Z,2.94
2022-09-12T06:34:04.384Z,2.94
2022-09-12T06:39:11.577Z,2.95
2022-09-12T06:44:20.669Z,2.94
2022-09-12T06:49:29.963Z,2.94
2022-09-12T06:54:37.125Z,2.95
2022-09-12T06:59:43.612Z,2.94
2022-09-12T07:04:52.047Z,2.95
2022-09-12T07:09:59.929Z,2.95
2022-09-12T07:15:08.384Z,2.95
2022-09-12T07:20:17.451Z,2.95
2022-09-12T07:25:26.637Z,2.95
2022-09-12T07:30:34.845Z,2.95
2022-09-12T07:35:42.437Z,2.95
2022-09-12T07:40:50.311Z,2.95
2022-09-12T07:45:59.143Z,2.95
2022-09-12T07:51:07.711Z,2.96
2022-09-12T07:56:14.650Z,2.95
2022-09-12T08:01:24.009Z,2.96
2022-09-12T08:06:30.942Z,2.96
2022-09-12T08:11:39.058Z,2.95
2022-09-12T08:16:45.660Z,2.96
2022-09-12T08:21:53.296Z,2.95
2022-09-12T08:27:00.729Z,2.95
2022-09-12T08:32:07.965Z,2.96
2022-09-12T08:37:13.820Z,2.95
2022-09-12T08:42:22.047Z,2.96
2022-09-12T08:47:29.847Z,2.96
2022-09-12T08:52:37.003Z,2.97
2022-09-12T08:57:44.522Z,2.96
2022-09-12T09:02:52.091Z,2.95
2022-09-12T09:07:59.582Z,2.97
2022-09-12T09:13:07.049Z,2.96
2022-09-12T09:18:14.638Z,2.97
2022-09-12T09:23:23.454Z,2.97
2022-09-12T09:28:30.486Z,2.97
2022-09-12T09:33:36.861Z,2.98
2022-09-12T09:38:44.061Z,2.97
2022-09-12T09:43:51.902Z,2.96
2022-09-12T09:48:58.662Z,2.97
2022-09-12T09:54:05.914Z,2.97
2022-09-12T09:59:13.356Z,2.97
2022-09-12T10:04:20.802Z,2.97
2022-09-12T10:09:27.832Z,2.97
2022-09-12T10:14:37.008Z,2.97
2022-09-12T10:19:45.770Z,2.97
2022-09-12T10:24:53.369Z,2.97
2022-09-12T10:30:02.507Z,2.98
2022-09-12T10:35:09.002Z,2.98
2022-09-12T10:40:15.582Z,2.97
2022-09-12T10:45:22.138Z,2.96
2022-09-12T10:50:31.771Z,2.97
2022-09-12T10:55:40.529Z,2.98
2022-09-12T11:00:47.964Z,2.97
2022-09-12T11:05:56.956Z,2.98
2022-09-12T11:11:04.099Z,2.97
2022-09-12T11:16:12.938Z,2.98
2022-09-12T11:21:20.745Z,2.97
2022-09-12T11:26:26.795Z,2.97
2022-09-12T11:31:35.006Z,2.97
2022-09-12T11:36:43.608Z,2.97
2022-09-12T11:41:50.416Z,2.98
2022-09-12T11:46:56.892Z,2.98
2022-09-12T11:52:04.803Z,2.98
2022-09-12T11:57:11.931Z,2.97
2022-09-12T12:02:19.819Z,2.98
2022-09-12T12:07:26.940Z,2.97
2022-09-12T12:12:34.137Z,2.97
2022-09-12T12:17:40.738Z,2.98
2022-09-12T12:22:47.958Z,2.97
2022-09-12T12:27:55.714Z,2.98
2022-09-12T12:33:02.330Z,2.97
2022-09-12T12:38:09.525Z,2.96
2022-09-12T12:43:17.289Z,2.96
2022-09-12T12:48:24.541Z,2.98
2022-09-12T12:53:31.744Z,2.98
2022-09-12T12:58:42.813Z,2.98
2022-09-12T13:03:50.004Z,2.98
2022-09-12T13:08:57.815Z,2.98
2022-09-12T13:14:05.304Z,2.98
2022-09-12T13:19:12.538Z,2.98
2022-09-12T13:24:18.917Z,2.99
2022-09-12T13:29:25.336Z,2.98
2022-09-12T13:34:33.306Z,2.99
2022-09-12T13:39:41.424Z,2.98
2022-09-12T13:44:49.234Z,2.98
2022-09-12T13:49:57.335Z,2.99
2022-09-12T13:55:06.426Z,2.98
2022-09-12T14:00:14.327Z,2.99
2022-09-12T14:05:20.865Z,2.98
2022-09-12T14:10:28.741Z,3.0
2022-09-12T14:15:39.197Z,2.98
2022-09-12T14:20:45.017Z,2.98
2022-09-12T14:25:51.595Z,2.98
2022-09-12T14:30:59.249Z,2.98
2022-09-12T14:36:06.617Z,2.99
2022-09-12T14:41:13.537Z,2.98
2022-09-12T14:46:22.615Z,2.97
2022-09-12T14:51:30.946Z,2.99
2022-09-12T14:56:37.987Z,2.99
2022-09-12T15:01:44.755Z,2.98
2022-09-12T15:06:51.785Z,2.97
2022-09-12T15:12:00.228Z,2.98
2022-09-12T15:17:07.428Z,2.97
2022-09-12T15:22:21.616Z,2.96
2022-09-12T15:27:30.084Z,2.97
2022-09-12T15:32:37.762Z,2.97
2022-09-12T15:37:45.200Z,2.97
2022-09-12T15:42:53.581Z,2.97
2022-09-12T15:48:00.682Z,2.98
2022-09-12T15:53:07.457Z,2.98
2022-09-12T15:58:14.975Z,2.96
2022-09-12T16:03:22.547Z,2.96
2022-09-12T16:08:29.840Z,2.97
2022-09-12T16:13:36.939Z,2.97
2022-09-12T16:18:44.648Z,2.96
2022-09-12T16:23:52.581Z,2.96
2022-09-12T16:29:00.288Z,2.96
2022-09-12T16:34:08.138Z,2.97
2022-09-12T16:39:15.465Z,2.96
2022-09-12T16:44:23.228Z,2.96
2022-09-12T16:49:31.132Z,2.96
2022-09-12T16:54:37.994Z,2.95
2022-09-12T16:59:45.531Z,2.96
2022-09-12T17:04:52.722Z,2.95
2022-09-12T17:09:58.657Z,2.95
2022-09-12T17:15:06.091Z,2.96
2022-09-12T17:20:13.626Z,2.95
2022-09-12T17:25:20.253Z,2.95
2022-09-12T17:30:27.466Z,2.94
2022-09-12T17:35:35.769Z,2.94
2022-09-12T17:40:43.645Z,2.94
2022-09-12T17:45:51.662Z,2.94
2022-09-12T17:50:59.418Z,2.94
2022-09-12T17:56:08.605Z,2.93
2022-09-12T18:01:17.296Z,2.93
2022-09-12T18:06:24.896Z,2.95
2022-09-12T18:11:32.080Z,2.94
2022-09-12T18:16:40.858Z,2.95
2022-09-12T18:21:48.129Z,2.94
2022-09-12T18:26:56.259Z,2.95
2022-09-12T18:32:04.034Z,2.94
2022-09-12T18:37:11.262Z,2.94
2022-09-12T18:42:19.673Z,2.94
2022-09-12T18:47:26.979Z,2.94
2022-09-12T18:52:34.425Z,2.94
2022-09-12T18:57:42.585Z,2.93
2022-09-12T19:02:49.983Z,2.92
2022-09-12T19:07:57.082Z,2.94
2022-09-12T19:13:04.972Z,2.93
2022-09-12T19:18:13.836Z,2.93
2022-09-12T19:23:23.580Z,2.93
2022-09-12T19:28:31.027Z,2.94
2022-09-12T19:33:38.903Z,2.94
2022-09-12T19:38:45.440Z,2.93
2022-09-12T19:43:53.267Z,2.93
2022-09-12T19:49:00.479Z,2.92
2022-09-12T20:17:24.650Z,2.92
2022-09-12T20:22:30.018Z,2.92
2022-09-12T20:27:43.936Z,2.92
2022-09-12T20:32:50.097Z,2.93
2022-09-12T20:37:57.377Z,2.93
2022-09-12T20:43:04.770Z,2.92
2022-09-12T20:48:11.781Z,2.92
2022-09-12T20:53:19.262Z,2.93
2022-09-12T20:58:27.977Z,2.93
2022-09-12T21:03:34.713Z,2.92
2022-09-12T21:08:42.841Z,2.92
2022-09-12T21:13:56.733Z,2.92
2022-09-12T21:19:03.927Z,2.92
2022-09-12T21:24:12.460Z,2.93
2022-09-12T21:29:21.201Z,2.92
2022-09-12T21:34:29.308Z,2.93
2022-09-12T21:39:37.861Z,2.92
2022-09-12T21:44:45.782Z,2.92
2022-09-12T21:49:52.838Z,2.91
2022-09-12T21:55:00.211Z,2.92
2022-09-12T22:00:08.213Z,2.94
2022-09-12T22:05:14.833Z,2.91
2022-09-12T22:10:23.574Z,2.92
2022-09-12T22:15:31.974Z,2.92
2022-09-12T22:20:41.109Z,2.92
2022-09-12T22:25:47.767Z,2.94
2022-09-12T22:30:55.486Z,2.93
2022-09-12T22:36:03.251Z,2.93
2022-09-12T22:41:10.651Z,2.94
2022-09-12T22:46:18.234Z,2.92
2022-09-12T22:51:25.032Z,2.92
2022-09-12T22:56:32.697Z,2.92
2022-09-12T23:01:40.328Z,2.92
2022-09-12T23:06:48.099Z,2.92
2022-09-12T23:11:55.591Z,2.91
2022-09-12T23:17:04.443Z,2.93
2022-09-12T23:22:12.099Z,2.91
2022-09-12T23:27:19.898Z,2.91
2022-09-12T23:32:28.940Z,2.92
2022-09-12T23:37:36.999Z,2.92
2022-09-12T23:42:45.142Z,2.91
2022-09-12T23:47:51.760Z,2.92
2022-09-12T23:52:58.471Z,2.92
2022-09-12T23:58:06.907Z,2.91
